Time;durP1;ratioP1;P1;durP2;ratioP2;P2;SDS_P1;SDS_P2;PMS_P1;PMS_P2;Temp;Humidity;BMP_temperature;BMP_pressure;BME280_temperature;BME280_humidity;BME280_pressure;Samples;Min_cycle;Max_cycle;Signal;HPM_P1;HPM_P2
2023/05/17 00:03:15;;;;;;;14.88;2.60;;;;;;;10.98;92.42;101349.09;8348592;28;20361;-60
2023/05/17 00:07:16;;;;;;;6.60;2.78;;;;;;;10.76;92.05;101354.50;8350627;28;20428;-59
2023/05/17 00:11:16;;;;;;;8.02;2.40;;;;;;;10.78;92.24;101354.38;8356351;28;20095;-60
2023/05/17 00:15:17;;;;;;;12.80;2.85;;;;;;;10.58;94.36;101345.16;8356140;28;20045;-60
2023/05/17 00:19:17;;;;;;;5.60;2.40;;;;;;;10.24;95.40;101354.16;8355618;28;20163;-60
2023/05/17 00:23:18;;;;;;;11.63;2.40;;;;;;;10.21;97.37;101351.69;8354863;28;20110;-60
2023/05/17 00:27:18;;;;;;;7.57;2.72;;;;;;;10.09;97.99;101358.03;8355232;28;20246;-60
2023/05/17 00:31:19;;;;;;;9.00;2.90;;;;;;;9.96;99.30;101357.22;8353544;28;20044;-60
2023/05/17 00:35:19;;;;;;;7.97;2.88;;;;;;;10.26;98.04;101354.03;8354369;28;20056;-60
2023/05/17 00:39:20;;;;;;;12.55;2.90;;;;;;;10.45;94.81;101355.19;8355509;28;20048;-60
2023/05/17 00:43:20;;;;;;;11.50;2.42;;;;;;;10.43;94.90;101357.16;8354437;28;20044;-60
2023/05/17 00:47:21;;;;;;;9.98;2.55;;;;;;;10.36;95.88;101360.44;8352874;28;20033;-59
2023/05/17 00:51:21;;;;;;;13.80;3.15;;;;;;;10.25;94.60;101353.19;8354592;28;20048;-59
2023/05/17 00:55:22;;;;;;;7.20;2.70;;;;;;;10.38;94.49;101356.66;8352506;28;20037;-59
2023/05/17 00:59:24;;;;;;;8.27;3.33;;;;;;;10.42;94.09;101360.84;8353956;28;20071;-60
2023/05/17 01:03:25;;;;;;;9.05;3.10;;;;;;;10.30;94.81;101367.19;8353926;28;20194;-59
2023/05/17 01:07:25;;;;;;;7.55;3.03;;;;;;;10.27;95.15;101372.00;8353130;28;20032;-60
2023/05/17 01:15:56;;;;;;;7.43;3.13;;;;;;;9.73;97.55;101372.44;8346254;27;20422;-60
2023/05/17 01:20:09;;;;;;;11.13;3.53;;;;;;;9.65;98.43;101368.59;8345369;28;20427;-60
2023/05/17 01:24:40;;;;;;;9.10;3.10;;;;;;;9.62;98.95;101366.13;8344442;28;20052;-60
2023/05/17 01:28:45;;;;;;;10.63;3.20;;;;;;;9.64;99.49;101375.81;8345833;28;20091;-60
2023/05/17 01:32:46;;;;;;;10.68;3.60;;;;;;;9.57;100.00;101379.09;8345798;28;20084;-60
2023/05/17 01:36:47;;;;;;;9.95;3.55;;;;;;;9.22;100.00;101372.72;8323837;28;20271;-60
2023/05/17 01:41:14;;;;;;;7.75;3.80;;;;;;;9.24;100.00;101379.72;8308474;28;20045;-61
2023/05/17 01:45:22;;;;;;;8.18;3.97;;;;;;;9.00;100.00;101380.66;8312958;28;20128;-60
2023/05/17 01:49:29;;;;;;;9.05;4.55;;;;;;;9.03;100.00;101389.34;8345934;28;20414;-60
2023/05/17 01:53:41;;;;;;;16.25;4.60;;;;;;;9.03;100.00;101391.22;8343025;28;20033;-61
2023/05/17 01:57:43;;;;;;;14.07;5.65;;;;;;;9.36;100.00;101400.41;8337740;28;20331;-60
2023/05/17 02:01:46;;;;;;;14.55;5.72;;;;;;;9.36;100.00;101402.25;8347160;28;20140;-60
2023/05/17 02:05:46;;;;;;;13.25;5.43;;;;;;;9.23;100.00;101404.13;8346707;28;20065;-60
2023/05/17 02:09:47;;;;;;;14.80;6.57;;;;;;;9.17;100.00;101399.16;8345154;28;20456;-60
2023/05/17 02:13:47;;;;;;;14.98;5.93;;;;;;;9.05;100.00;101397.34;8343435;28;20488;-60
2023/05/17 02:17:48;;;;;;;10.60;6.25;;;;;;;9.04;100.00;101392.94;8344865;28;20038;-60
2023/05/17 02:21:48;;;;;;;13.38;6.03;;;;;;;9.13;100.00;101397.66;8345319;28;20614;-60
2023/05/17 02:25:49;;;;;;;16.23;6.50;;;;;;;9.28;100.00;101407.34;8331246;28;20037;-60
2023/05/17 02:29:50;;;;;;;16.25;5.82;;;;;;;9.32;100.00;101404.31;8323315;28;20042;-59
2023/05/17 02:33:50;;;;;;;22.08;6.43;;;;;;;9.30;100.00;101403.56;8323688;28;20037;-59
2023/05/17 02:37:51;;;;;;;15.25;7.07;;;;;;;9.26;100.00;101414.69;8323695;28;20042;-59
2023/05/17 02:41:51;;;;;;;11.55;6.53;;;;;;;9.14;100.00;101412.88;8323878;28;20556;-58
2023/05/17 02:45:52;;;;;;;17.88;6.65;;;;;;;9.04;100.00;101415.38;8321917;28;20042;-58
2023/05/17 02:49:52;;;;;;;16.40;7.63;;;;;;;9.01;100.00;101417.41;8323736;28;20048;-58
2023/05/17 02:53:53;;;;;;;20.05;7.47;;;;;;;9.29;100.00;101415.34;8322771;28;20051;-59
2023/05/17 02:57:54;;;;;;;15.95;7.70;;;;;;;9.40;100.00;101417.25;8322712;28;20423;-60
2023/05/17 03:01:56;;;;;;;22.52;8.80;;;;;;;9.50;100.00;101413.78;8318044;28;20109;-62
2023/05/17 03:06:00;;;;;;;29.38;8.60;;;;;;;9.44;100.00;101407.97;8322408;28;20408;-62
2023/05/17 03:10:02;;;;;;;22.98;7.88;;;;;;;9.32;100.00;101419.66;8293519;28;20045;-61
2023/05/17 03:14:09;;;;;;;29.02;9.20;;;;;;;9.19;100.00;101416.97;8287061;28;20119;-62
2023/05/17 03:18:10;;;;;;;27.00;8.25;;;;;;;8.96;100.00;101416.88;8289669;28;20156;-62
2023/05/17 03:22:13;;;;;;;15.50;8.32;;;;;;;8.98;100.00;101420.34;8289201;28;20042;-62
2023/05/17 03:26:14;;;;;;;22.02;8.52;;;;;;;8.88;100.00;101421.97;8289938;28;20076;-62
2023/05/17 03:30:20;;;;;;;28.60;8.82;;;;;;;8.89;100.00;101410.19;8304969;28;20049;-62
2023/05/17 03:34:21;;;;;;;24.50;10.20;;;;;;;8.90;100.00;101431.66;8322379;28;20056;-62
2023/05/17 03:38:22;;;;;;;22.67;9.65;;;;;;;8.85;100.00;101443.75;8322102;28;20500;-62
2023/05/17 03:42:24;;;;;;;20.67;9.43;;;;;;;8.74;100.00;101443.63;8322021;28;20060;-62
2023/05/17 03:46:25;;;;;;;22.63;10.25;;;;;;;8.84;100.00;101450.13;8336863;28;20057;-62
2023/05/17 03:50:26;;;;;;;27.70;11.43;;;;;;;8.98;100.00;101453.56;8321099;28;20080;-62
2023/05/17 03:54:26;;;;;;;38.03;10.77;;;;;;;9.14;100.00;101458.72;8320761;28;20123;-61
2023/05/17 03:58:27;;;;;;;28.27;9.65;;;;;;;9.05;100.00;101444.06;8320888;28;20045;-61
2023/05/17 04:02:27;;;;;;;32.88;9.38;;;;;;;9.15;100.00;101460.47;8310369;28;20458;-61
2023/05/17 04:06:29;;;;;;;19.35;9.55;;;;;;;9.09;100.00;101460.91;8311644;28;20045;-60
2023/05/17 04:10:29;;;;;;;23.23;9.63;;;;;;;9.02;100.00;101464.97;8274627;28;20432;-61
2023/05/17 04:14:30;;;;;;;28.13;9.60;;;;;;;9.06;100.00;101470.06;8308609;28;20114;-61
2023/05/17 04:18:36;;;;;;;26.42;9.63;;;;;;;9.16;100.00;101463.06;8316989;28;20045;-61
2023/05/17 04:22:36;;;;;;;33.58;10.60;;;;;;;9.22;100.00;101462.63;8318090;28;20048;-62
2023/05/17 04:26:37;;;;;;;21.73;9.50;;;;;;;9.15;100.00;101482.06;8318785;28;20038;-61
2023/05/17 04:30:42;;;;;;;24.70;9.82;;;;;;;9.02;100.00;101476.66;8318103;28;20048;-59
2023/05/17 04:34:43;;;;;;;;;;;;;;;9.38;100.00;101478.56;8318825;28;20045;-58
2023/05/17 04:38:43;;;;;;;30.00;11.52;;;;;;;9.71;100.00;101476.16;8317996;28;19932;-59
2023/05/17 04:42:48;;;;;;;31.10;11.95;;;;;;;9.83;100.00;101480.66;8316436;28;20099;-59
2023/05/17 04:46:49;;;;;;;35.20;12.13;;;;;;;9.97;100.00;101488.59;8321861;28;20029;-59
2023/05/17 04:50:50;;;;;;;32.22;12.57;;;;;;;9.91;100.00;101500.72;8318892;28;20037;-59
2023/05/17 04:54:51;;;;;;;34.03;12.60;;;;;;;10.01;100.00;101501.75;8313919;28;20045;-59
2023/05/17 04:58:52;;;;;;;40.67;13.30;;;;;;;10.16;100.00;101499.81;8315668;28;20037;-56
2023/05/17 05:02:52;;;;;;;31.30;12.77;;;;;;;10.64;100.00;101498.81;8314181;28;20038;-60
2023/05/17 05:06:53;;;;;;;38.00;14.48;;;;;;;10.53;100.00;101498.78;8313273;28;20061;-60
2023/05/17 05:10:54;;;;;;;37.88;15.20;;;;;;;10.68;100.00;101497.63;8330208;28;20606;-60
2023/05/17 05:14:57;;;;;;;43.63;16.92;;;;;;;10.80;100.00;101512.88;8304751;28;20044;-60
2023/05/17 05:18:58;;;;;;;41.90;15.93;;;;;;;10.94;100.00;101518.09;8316212;28;20439;-59
2023/05/17 05:22:59;;;;;;;43.25;15.02;;;;;;;10.95;100.00;101525.22;8315125;28;20132;-60
2023/05/17 05:27:01;;;;;;;56.53;15.82;;;;;;;10.95;100.00;101521.69;8305934;28;20041;-61
2023/05/17 05:31:01;;;;;;;38.05;15.75;;;;;;;11.13;100.00;101518.38;8313554;28;20048;-60
2023/05/17 05:35:09;;;;;;;63.38;17.40;;;;;;;11.15;100.00;101513.72;8313314;28;20041;-60
2023/05/17 05:39:11;;;;;;;27.27;8.98;;;;;;;11.54;100.00;101532.25;8312348;28;20041;-59
2023/05/17 05:43:12;;;;;;;35.05;13.65;;;;;;;11.21;100.00;101529.47;8312970;28;20164;-60
2023/05/17 05:47:12;;;;;;;29.73;13.43;;;;;;;11.22;100.00;101536.59;8299676;28;20045;-60
2023/05/17 05:51:13;;;;;;;36.85;13.88;;;;;;;11.12;100.00;101540.16;8295208;28;20042;-59
2023/05/17 05:55:16;;;;;;;29.00;14.05;;;;;;;11.13;100.00;101542.75;8306859;28;20133;-59
2023/05/17 05:59:17;;;;;;;39.25;14.23;;;;;;;11.18;100.00;101539.69;8317063;28;20052;-60
2023/05/17 06:03:18;;;;;;;70.88;19.25;;;;;;;11.33;100.00;101555.59;8339241;28;20049;-59
2023/05/17 06:07:19;;;;;;;42.40;13.98;;;;;;;11.48;100.00;101548.97;8326257;28;20124;-59
2023/05/17 06:11:19;;;;;;;30.17;13.80;;;;;;;11.68;100.00;101556.41;8325010;28;20857;-59
2023/05/17 06:15:20;;;;;;;46.92;14.18;;;;;;;11.55;100.00;101560.16;8325626;28;20045;-59
2023/05/17 06:19:20;;;;;;;43.42;15.25;;;;;;;11.66;100.00;101563.81;8326489;28;20127;-60
2023/05/17 06:23:22;;;;;;;30.42;12.45;;;;;;;11.53;100.00;101568.41;8324335;28;20033;-60
2023/05/17 06:27:22;;;;;;;36.72;13.27;;;;;;;11.57;100.00;101569.03;8325224;28;20125;-60
2023/05/17 06:31:24;;;;;;;40.08;12.88;;;;;;;11.57;100.00;101575.34;8325372;28;20276;-60
2023/05/17 06:35:24;;;;;;;33.08;12.45;;;;;;;11.68;100.00;101572.66;8324963;28;20566;-60
2023/05/17 06:39:25;;;;;;;40.33;13.48;;;;;;;11.85;100.00;101577.59;8326945;28;20464;-60
2023/05/17 06:43:25;;;;;;;33.60;12.98;;;;;;;12.18;100.00;101583.97;8326766;28;20403;-59
2023/05/17 06:47:26;;;;;;;32.25;13.23;;;;;;;12.37;100.00;101576.06;8322983;28;20068;-60
2023/05/17 06:51:26;;;;;;;26.77;11.50;;;;;;;12.53;100.00;101576.53;8324663;28;20672;-59
2023/05/17 06:55:26;;;;;;;25.25;11.15;;;;;;;12.49;96.10;101575.91;8325908;28;20483;-59
2023/05/17 06:59:27;;;;;;;30.17;10.50;;;;;;;12.56;95.23;101592.56;8326590;28;20471;-60
2023/05/17 07:03:27;;;;;;;24.42;9.60;;;;;;;12.71;92.37;101586.72;8326036;28;20057;-60
2023/05/17 07:07:28;;;;;;;25.45;10.10;;;;;;;13.02;91.87;101595.91;8326070;28;20713;-60
2023/05/17 07:11:28;;;;;;;31.90;9.23;;;;;;;13.38;88.65;101592.72;8322744;28;20128;-60
2023/05/17 07:15:29;;;;;;;23.88;9.48;;;;;;;13.55;84.21;101597.56;8324507;28;20060;-60
2023/05/17 07:19:29;;;;;;;18.13;7.80;;;;;;;13.64;82.22;101594.06;8327250;28;20601;-61
2023/05/17 07:23:30;;;;;;;22.70;8.40;;;;;;;13.48;82.97;101605.38;8326270;28;20041;-62
2023/05/17 07:27:30;;;;;;;24.67;8.80;;;;;;;13.29;81.65;101602.53;8325165;28;20040;-59
2023/05/17 07:31:31;;;;;;;28.90;9.30;;;;;;;13.33;81.00;101611.28;8326388;28;20068;-61
2023/05/17 07:35:31;;;;;;;24.48;9.32;;;;;;;13.33;79.05;101612.13;8325974;28;20037;-61
2023/05/17 07:39:31;;;;;;;23.35;8.85;;;;;;;13.39;78.78;101610.78;8325297;28;20399;-61
2023/05/17 07:43:32;;;;;;;28.27;10.30;;;;;;;13.68;79.04;101609.09;8325747;28;20040;-61
2023/05/17 07:47:32;;;;;;;29.98;10.02;;;;;;;13.81;77.19;101612.44;8325170;28;20037;-61
2023/05/17 07:51:34;;;;;;;28.88;8.15;;;;;;;13.78;76.77;101623.59;8325393;28;20450;-61
2023/05/17 07:55:34;;;;;;;17.48;5.90;;;;;;;13.84;75.78;101621.22;8325511;28;20048;-62
2023/05/17 07:59:35;;;;;;;27.73;5.80;;;;;;;13.79;72.96;101628.06;8325267;28;20037;-62
2023/05/17 08:03:36;;;;;;;22.98;4.60;;;;;;;13.86;73.57;101621.06;8324997;28;20107;-62
2023/05/17 08:07:36;;;;;;;18.13;4.05;;;;;;;13.95;72.89;101625.69;8340460;28;20049;-61
2023/05/17 08:11:44;;;;;;;17.88;3.33;;;;;;;14.02;71.95;101616.00;8323697;28;20037;-62
2023/05/17 08:15:44;;;;;;;17.35;3.45;;;;;;;14.17;70.12;101633.69;8325275;28;20043;-62
2023/05/17 08:19:45;;;;;;;16.08;3.15;;;;;;;14.68;67.83;101637.19;8324415;28;20038;-62
2023/05/17 08:23:45;;;;;;;18.17;3.03;;;;;;;14.99;66.50;101636.09;8323848;28;20033;-62
2023/05/17 08:27:46;;;;;;;11.25;2.83;;;;;;;15.22;64.90;101623.91;8324484;28;20038;-63
2023/05/17 08:31:46;;;;;;;17.15;3.20;;;;;;;15.45;66.42;101627.25;8323445;28;20041;-62
2023/05/17 08:35:47;;;;;;;19.33;3.72;;;;;;;15.35;65.74;101634.53;8324570;28;20107;-62
2023/05/17 08:39:50;;;;;;;10.48;2.42;;;;;;;14.78;64.78;101621.72;8324062;28;20037;-62
2023/05/17 08:43:50;;;;;;;12.82;2.65;;;;;;;15.10;63.39;101624.22;8323879;28;20566;-62
2023/05/17 08:47:53;;;;;;;15.05;2.85;;;;;;;15.46;62.42;101621.63;8324171;28;20499;-61
2023/05/17 08:51:54;;;;;;;15.07;2.88;;;;;;;15.59;63.13;101624.06;8323675;28;20096;-62
2023/05/17 08:56:00;;;;;;;12.32;2.75;;;;;;;15.06;62.11;101642.69;8323062;28;20057;-60
2023/05/17 09:00:03;;;;;;;9.25;2.20;;;;;;;15.06;60.66;101626.34;8323333;28;20065;-60
2023/05/17 09:04:07;;;;;;;8.70;2.47;;;;;;;15.18;61.28;101641.56;8322693;28;20495;-61
2023/05/17 09:08:12;;;;;;;23.95;4.40;;;;;;;16.01;60.43;101646.38;8323127;28;20041;-61
2023/05/17 09:12:13;;;;;;;15.77;3.97;;;;;;;15.53;60.34;101644.56;8322684;28;20044;-61
2023/05/17 09:16:13;;;;;;;17.02;4.68;;;;;;;15.09;59.92;101647.84;8322717;28;20037;-61
2023/05/17 09:20:22;;;;;;;12.05;3.70;;;;;;;15.88;59.38;101634.91;8322677;28;20040;-61
2023/05/17 09:24:28;;;;;;;9.57;3.05;;;;;;;16.77;56.58;101646.06;8321632;28;20044;-61
2023/05/17 09:28:37;;;;;;;11.57;3.55;;;;;;;16.42;55.74;101635.00;8322186;28;20117;-61
2023/05/17 09:32:44;;;;;;;11.63;2.88;;;;;;;16.49;56.90;101637.00;8321850;28;20039;-61
2023/05/17 09:36:45;;;;;;;12.40;3.60;;;;;;;16.66;59.37;101638.06;8327831;28;20041;-61
2023/05/17 09:40:47;;;;;;;17.88;3.60;;;;;;;17.17;59.53;101632.84;8327076;28;20079;-61
2023/05/17 09:44:52;;;;;;;9.45;2.33;;;;;;;17.21;55.06;101646.03;8328748;28;20037;-61
2023/05/17 09:48:54;;;;;;;12.43;3.25;;;;;;;16.70;55.76;101634.03;8328793;28;20091;-60
2023/05/17 09:52:54;;;;;;;11.25;2.97;;;;;;;17.69;54.60;101639.31;8328425;28;20068;-60
2023/05/17 09:56:58;;;;;;;11.40;3.22;;;;;;;18.87;52.35;101626.47;8328674;28;20072;-59
2023/05/17 10:01:01;;;;;;;17.42;3.53;;;;;;;19.15;51.61;101633.38;8328435;28;20099;-60
2023/05/17 10:05:05;;;;;;;7.85;2.03;;;;;;;22.00;46.81;101633.69;8327757;28;20045;-60
2023/05/17 10:09:06;;;;;;;8.48;2.33;;;;;;;19.81;50.84;101624.16;8328378;28;20063;-60
2023/05/17 10:13:10;;;;;;;7.90;2.28;;;;;;;18.03;54.47;101626.56;8327972;28;20037;-60
2023/05/17 10:17:12;;;;;;;16.15;2.95;;;;;;;17.03;60.45;101630.63;8328548;28;20049;-60
2023/05/17 10:21:13;;;;;;;9.80;2.35;;;;;;;16.77;58.76;101624.22;8327908;28;20510;-61
2023/05/17 10:25:14;;;;;;;12.20;2.92;;;;;;;16.67;58.65;101623.41;8327096;28;20513;-60
2023/05/17 10:29:15;;;;;;;8.93;2.53;;;;;;;18.36;52.97;101621.09;8327516;28;20679;-60
2023/05/17 10:33:17;;;;;;;14.18;2.20;;;;;;;17.27;54.39;101611.75;8327361;28;20045;-60
2023/05/17 10:37:18;;;;;;;11.20;2.15;;;;;;;17.53;54.25;101620.88;8323879;28;20041;-60
2023/05/17 10:41:22;;;;;;;10.45;2.75;;;;;;;18.04;53.28;101617.31;8327645;28;20047;-60
2023/05/17 10:45:24;;;;;;;;;;;;;;;18.17;52.33;101621.34;8319590;28;20041;-60
2023/05/17 10:49:29;;;;;;;11.73;2.50;;;;;;;20.26;49.59;101605.22;8325101;28;19917;-59
2023/05/17 10:53:30;;;;;;;10.05;2.13;;;;;;;21.16;47.84;101609.09;8299868;28;20132;-60
2023/05/17 10:57:36;;;;;;;14.00;2.78;;;;;;;22.34;50.16;101603.69;8290968;28;20523;-60
2023/05/17 11:02:02;;;;;;;16.15;2.33;;;;;;;19.85;51.03;101606.34;8291587;28;20036;-59
2023/05/17 11:10:22;;;;;;;12.63;2.65;;;;;;;18.71;52.12;101598.16;8403301;27;20390;-59
2023/05/17 11:14:23;;;;;;;8.27;2.25;;;;;;;17.34;53.24;101597.31;8367491;28;20036;-59
2023/05/17 11:18:23;;;;;;;15.10;2.83;;;;;;;18.08;53.32;101605.88;8363463;28;20039;-59
2023/05/17 11:22:25;;;;;;;13.48;2.58;;;;;;;21.52;46.93;101590.06;8364751;28;20047;-59
2023/05/17 11:26:32;;;;;;;10.27;2.45;;;;;;;19.67;48.87;101589.19;8365011;28;20033;-59
2023/05/17 11:30:32;;;;;;;11.98;2.63;;;;;;;18.11;50.04;101591.03;8345681;28;20040;-59
2023/05/17 11:34:33;;;;;;;9.23;1.77;;;;;;;18.23;51.42;101604.25;8381404;28;20116;-59
2023/05/17 11:38:34;;;;;;;15.40;2.50;;;;;;;18.66;51.42;101587.69;8380411;28;20115;-59
2023/05/17 11:42:36;;;;;;;16.27;2.05;;;;;;;17.63;52.66;101589.69;8360943;28;20041;-59
2023/05/17 11:46:37;;;;;;;13.25;2.67;;;;;;;20.05;47.61;101588.44;8359484;28;20037;-59
2023/05/17 11:50:39;;;;;;;11.48;1.80;;;;;;;21.76;45.08;101578.00;8362448;28;20051;-59
2023/05/17 11:54:40;;;;;;;8.98;1.73;;;;;;;21.51;46.13;101590.25;8361275;28;20065;-59
2023/05/17 11:58:42;;;;;;;8.32;1.75;;;;;;;22.68;45.36;101581.91;8362168;28;20037;-59
2023/05/17 12:02:42;;;;;;;7.43;1.52;;;;;;;19.60;46.96;101591.78;8362419;28;20044;-59
2023/05/17 12:06:43;;;;;;;9.52;1.75;;;;;;;17.95;49.75;101597.25;8360473;28;20037;-58
2023/05/17 12:10:48;;;;;;;11.23;2.20;;;;;;;17.83;52.45;101587.59;8360414;28;20611;-58
2023/05/17 12:14:49;;;;;;;;;;;;;;;17.56;51.75;101569.47;8360279;28;20049;-58
2023/05/17 12:18:50;;;;;;;10.05;1.88;;;;;;;17.85;52.36;101580.09;8352828;28;19928;-58
2023/05/17 12:22:53;;;;;;;52.20;5.15;;;;;;;18.06;54.76;101566.03;8323403;28;20403;-58
2023/05/17 12:26:53;;;;;;;13.10;2.63;;;;;;;17.84;51.59;101572.06;8355029;28;20045;-59
2023/05/17 12:30:57;;;;;;;10.13;2.88;;;;;;;17.50;53.43;101569.25;8299975;28;20045;-59
2023/05/17 12:34:57;;;;;;;13.23;1.83;;;;;;;17.55;53.27;101566.91;8316846;28;20343;-59
2023/05/17 12:38:59;;;;;;;8.63;2.08;;;;;;;17.63;52.30;101569.69;8305935;28;20034;-59
2023/05/17 12:43:02;;;;;;;9.68;1.83;;;;;;;17.26;51.71;101580.81;8305638;28;20048;-60
2023/05/17 12:47:02;;;;;;;9.07;2.17;;;;;;;17.03;53.49;101567.78;8305484;28;20045;-59
2023/05/17 12:51:06;;;;;;;9.75;2.17;;;;;;;16.83;51.99;101533.44;8305930;28;20048;-60
2023/05/17 12:55:12;;;;;;;20.40;2.85;;;;;;;17.00;53.44;101568.97;8314611;28;20387;-60
2023/05/17 12:59:15;;;;;;;11.93;2.22;;;;;;;17.20;53.04;101567.78;8312123;28;20388;-60
2023/05/17 13:03:16;;;;;;;8.87;2.10;;;;;;;17.08;50.88;101569.03;8336876;28;20045;-59
2023/05/17 13:07:22;;;;;;;10.50;2.10;;;;;;;16.98;51.90;101573.72;8324157;28;20272;-59
2023/05/17 13:11:24;;;;;;;11.13;1.90;;;;;;;17.53;51.76;101571.66;8344022;28;20043;-59
2023/05/17 13:15:28;;;;;;;7.25;1.77;;;;;;;17.87;52.07;101572.56;8354921;28;20037;-62
2023/05/17 13:19:28;;;;;;;11.93;2.13;;;;;;;17.55;51.94;101572.38;8341225;28;20041;-60
2023/05/17 13:23:28;;;;;;;7.82;1.70;;;;;;;17.15;52.18;101580.22;8336715;28;20067;-59
2023/05/17 13:27:29;;;;;;;12.90;2.15;;;;;;;17.01;53.27;101572.53;8330160;28;20112;-59
2023/05/17 13:31:29;;;;;;;7.93;1.85;;;;;;;17.21;53.14;101574.09;8329145;28;20045;-60
2023/05/17 13:35:30;;;;;;;11.35;2.60;;;;;;;17.15;53.58;101569.28;8316125;28;20524;-59
2023/05/17 13:39:30;;;;;;;8.48;2.30;;;;;;;17.28;52.80;101567.00;8294024;28;20099;-59
2023/05/17 13:43:31;;;;;;;12.30;2.20;;;;;;;17.40;53.28;101571.19;8299327;28;20470;-59
2023/05/17 13:47:31;;;;;;;7.72;2.08;;;;;;;16.82;53.30;101568.09;8303952;28;20493;-60
2023/05/17 13:51:33;;;;;;;7.95;2.03;;;;;;;16.68;52.25;101560.44;8320374;28;20645;-59
2023/05/17 13:55:34;;;;;;;11.60;2.20;;;;;;;16.65;51.98;101554.44;8326505;28;20075;-59
2023/05/17 13:59:34;;;;;;;7.53;2.25;;;;;;;16.92;53.15;101560.69;8323804;28;20655;-59
2023/05/17 14:03:35;;;;;;;8.10;2.10;;;;;;;16.89;52.96;101554.66;8351099;28;20082;-59
2023/05/17 14:07:40;;;;;;;6.78;1.75;;;;;;;17.03;53.10;101555.00;8365498;28;20052;-59
2023/05/17 14:11:40;;;;;;;7.25;2.20;;;;;;;16.99;50.94;101552.75;8334417;28;20495;-59
2023/05/17 14:15:41;;;;;;;13.93;2.67;;;;;;;16.93;50.92;101545.16;8333291;28;20111;-59
2023/05/17 14:19:41;;;;;;;7.78;1.90;;;;;;;16.90;52.42;101548.22;8326042;28;20041;-59
2023/05/17 14:23:42;;;;;;;7.82;2.42;;;;;;;17.18;53.37;101544.38;8334007;28;20075;-59
2023/05/17 14:27:42;;;;;;;11.75;2.42;;;;;;;17.19;51.99;101537.88;8335436;28;20452;-59
2023/05/17 14:31:42;;;;;;;9.35;1.95;;;;;;;17.05;51.48;101543.91;8335600;28;20045;-59
2023/05/17 14:35:43;;;;;;;6.18;1.95;;;;;;;17.22;52.31;101532.94;8334765;28;20060;-59
2023/05/17 14:39:43;;;;;;;9.40;1.98;;;;;;;17.08;51.76;101536.22;8343401;28;20135;-59
2023/05/17 14:43:44;;;;;;;7.53;2.38;;;;;;;17.11;52.10;101529.63;8349811;28;20045;-59
2023/05/17 14:47:45;;;;;;;7.88;2.10;;;;;;;17.35;53.31;101532.53;8371175;28;20044;-59
2023/05/17 14:51:45;;;;;;;8.85;2.85;;;;;;;17.32;51.89;101532.84;8363148;28;20038;-59
2023/05/17 14:55:46;;;;;;;9.93;2.10;;;;;;;17.19;52.09;101521.47;8333897;28;20042;-60
2023/05/17 14:59:47;;;;;;;8.02;2.53;;;;;;;17.19;52.20;101522.34;8332821;28;20037;-60
2023/05/17 15:03:47;;;;;;;10.27;2.50;;;;;;;17.09;50.52;101531.63;8333718;28;20052;-60
2023/05/17 15:07:47;;;;;;;7.78;2.03;;;;;;;17.13;50.14;101530.31;8334078;28;20038;-59
2023/05/17 15:11:48;;;;;;;5.60;2.08;;;;;;;17.04;50.60;101529.38;8316995;28;20420;-60
2023/05/17 15:15:51;;;;;;;11.93;1.90;;;;;;;16.96;52.06;101542.13;8320137;28;20041;-60
2023/05/17 15:19:52;;;;;;;7.55;1.92;;;;;;;17.26;52.01;101536.25;8334757;28;20049;-60
2023/05/17 15:23:52;;;;;;;12.32;2.08;;;;;;;17.11;52.52;101530.47;8333542;28;20492;-60
2023/05/17 15:27:53;;;;;;;7.65;2.25;;;;;;;17.34;52.96;101533.56;8323039;28;20394;-60
2023/05/17 15:31:53;;;;;;;8.60;2.60;;;;;;;17.12;51.44;101523.13;8330013;28;20048;-59
2023/05/17 15:35:54;;;;;;;6.70;2.28;;;;;;;16.96;49.86;101525.72;8334701;28;20039;-60
2023/05/17 15:39:54;;;;;;;8.82;2.50;;;;;;;17.05;49.27;101530.25;8331473;28;20037;-60
2023/05/17 15:43:55;;;;;;;10.77;2.72;;;;;;;16.97;51.02;101538.34;8329472;28;21455;-60
2023/05/17 15:47:56;;;;;;;9.15;2.88;;;;;;;16.87;51.21;101537.59;8328624;28;20040;-60
2023/05/17 15:51:56;;;;;;;9.82;2.80;;;;;;;16.79;50.75;101540.22;8327325;28;20718;-60
2023/05/17 15:55:56;;;;;;;7.63;2.47;;;;;;;16.99;50.98;101541.81;8333259;28;20499;-60
2023/05/17 15:59:57;;;;;;;8.27;2.83;;;;;;;16.95;50.33;101526.72;8318848;28;20036;-60
2023/05/17 16:03:57;;;;;;;17.77;3.08;;;;;;;16.92;50.00;101529.75;8339857;28;20033;-59
2023/05/17 16:07:59;;;;;;;11.63;3.22;;;;;;;16.90;50.13;101526.34;8336805;28;20044;-60
2023/05/17 16:11:59;;;;;;;9.55;3.13;;;;;;;16.68;50.18;101526.81;8338686;28;20052;-60
2023/05/17 16:16:00;;;;;;;10.45;2.42;;;;;;;16.82;51.19;101523.53;8341025;28;20033;-60
2023/05/17 16:20:01;;;;;;;9.60;2.63;;;;;;;16.88;52.39;101529.25;8346562;28;20579;-61
2023/05/17 16:24:03;;;;;;;9.50;3.15;;;;;;;16.90;51.82;101520.88;8339713;28;20042;-59
2023/05/17 16:28:03;;;;;;;8.25;3.28;;;;;;;16.85;50.49;101525.94;8339457;28;20322;-60
2023/05/17 16:32:05;;;;;;;8.75;2.63;;;;;;;16.78;51.91;101517.53;8340323;28;20045;-60
2023/05/17 16:36:05;;;;;;;5.65;2.83;;;;;;;16.66;52.20;101517.91;8340950;28;20045;-60
2023/05/17 16:40:07;;;;;;;15.15;3.30;;;;;;;16.73;52.04;101529.94;8339766;28;20048;-60
2023/05/17 16:44:07;;;;;;;7.95;3.50;;;;;;;16.75;51.61;101527.91;8327456;28;20505;-60
2023/05/17 16:48:08;;;;;;;8.65;2.95;;;;;;;16.75;51.91;101522.44;8339292;28;20477;-60
2023/05/17 16:52:09;;;;;;;12.57;3.20;;;;;;;16.76;52.23;101529.63;8329082;28;20124;-60
2023/05/17 16:56:09;;;;;;;8.70;3.05;;;;;;;16.70;52.92;101536.56;8327467;28;20068;-60
2023/05/17 17:00:10;;;;;;;17.48;3.33;;;;;;;16.66;52.94;101534.31;8331042;28;20115;-60
2023/05/17 17:04:11;;;;;;;12.38;3.15;;;;;;;16.74;53.69;101542.59;8340654;28;20098;-60
2023/05/17 17:08:11;;;;;;;9.00;3.38;;;;;;;16.69;53.06;101534.88;8336350;28;20041;-59
2023/05/17 17:12:13;;;;;;;14.55;3.88;;;;;;;16.60;52.42;101535.78;8339700;28;20567;-60
2023/05/17 17:16:13;;;;;;;9.15;3.13;;;;;;;16.49;52.86;101540.59;8347788;28;20060;-60
2023/05/17 17:20:14;;;;;;;14.23;4.03;;;;;;;16.40;53.19;101530.56;8335486;28;20033;-60
2023/05/17 17:24:15;;;;;;;11.55;3.65;;;;;;;16.43;54.12;101538.44;8334213;28;20114;-60
2023/05/17 17:28:16;;;;;;;11.98;3.35;;;;;;;16.34;53.26;101540.22;8336966;28;20525;-59
2023/05/17 17:32:16;;;;;;;16.63;4.10;;;;;;;16.32;55.07;101547.72;8335244;28;20043;-60
2023/05/17 17:36:17;;;;;;;10.27;3.67;;;;;;;16.22;54.00;101548.78;8336424;28;20610;-60
2023/05/17 17:40:17;;;;;;;11.30;3.92;;;;;;;16.18;54.74;101539.16;8333487;28;20340;-59
2023/05/17 17:44:18;;;;;;;16.67;3.08;;;;;;;16.09;53.35;101546.41;8332855;28;20032;-60
2023/05/17 17:48:18;;;;;;;15.00;3.42;;;;;;;16.02;54.15;101538.97;8334967;28;20046;-60
2023/05/17 17:52:19;;;;;;;10.35;3.22;;;;;;;15.99;54.03;101542.00;8334757;28;20198;-60
2023/05/17 17:56:20;;;;;;;7.82;2.35;;;;;;;15.94;54.52;101538.84;8334841;28;20041;-60
2023/05/17 18:00:20;;;;;;;14.10;3.50;;;;;;;15.90;54.85;101548.34;8331641;28;22208;-59
2023/05/17 18:04:21;;;;;;;11.25;3.20;;;;;;;15.79;55.65;101543.09;8334626;28;20053;-59
2023/05/17 18:08:21;;;;;;;10.15;3.38;;;;;;;15.69;56.46;101538.53;8334256;28;20408;-59
2023/05/17 18:12:25;;;;;;;11.07;3.70;;;;;;;15.70;56.49;101545.69;8333095;28;20411;-60
2023/05/17 18:16:26;;;;;;;10.45;3.25;;;;;;;15.59;56.93;101554.03;8331474;28;20060;-60
2023/05/17 18:20:26;;;;;;;14.93;2.88;;;;;;;15.56;57.16;101554.31;8319440;28;20041;-60
2023/05/17 18:24:27;;;;;;;17.05;4.18;;;;;;;15.44;57.50;101555.50;8321438;28;20076;-60
2023/05/17 18:28:28;;;;;;;10.45;3.40;;;;;;;15.36;58.07;101558.09;8300834;28;20080;-59
2023/05/17 18:32:29;;;;;;;10.82;3.60;;;;;;;15.28;58.92;101555.22;8333191;28;20045;-60
2023/05/17 18:36:29;;;;;;;12.63;3.97;;;;;;;15.16;59.50;101566.44;8332095;28;20048;-60
2023/05/17 18:40:30;;;;;;;13.68;4.30;;;;;;;15.05;60.03;101558.41;8337189;28;20468;-60
2023/05/17 18:44:30;;;;;;;10.32;3.50;;;;;;;14.94;60.60;101562.13;8333653;28;20049;-60